»·PEaware :: N415BJ KAJO-KVCV

N415BJ :: KAJO-KVCV

FLIGHT INFORMATION

Flight Status: Arrived
Operator: Privately registered:
United States
More flights under this callsign
Pilot: Daniel G. (31975)
Aircraft: CIRRUS SR-22 TURBO
(S22T)
More flights by this aircraft type
Origin: KAJO Corona Mun
United States
Destination: KVCV Socal Logistics
United States
More flights between these airports :: More routes between these airports
Route: +PDZ V442 APLES
File this flight plan on PilotEdge
Remarks:
Altitude:
(Current/Filed)
11,000ft
Speed:
(Current/Filed)
170kts
Departed: 05-Nov-20 07:56 PM
Arrived: 05-Nov-20 08:51 PM
Distance/Time
Traveled:
43nm/0:54
Distance/Time
To Go:
Arrived

Flight Plot

Page will automatically refresh every two minutes.


Map Options




Map Legend


Flown Route
Filed Route
Departure Airport
Arrival Airport
Navaid (VOR, NDB)
Fix

Horizontal Profiles

Position Reports

Time Latitude Longitude Heading Altitude Ground
Speed
05-Nov-20 19:35 33.896924 -117.602001 181 536ft 0kts
05-Nov-20 19:35 33.896924 -117.602001 181 536ft 0kts
05-Nov-20 19:37 33.896924 -117.602001 181 536ft 0kts
05-Nov-20 19:37 33.896924 -117.602001 181 536ft 0kts
05-Nov-20 19:38 33.896924 -117.602001 181 536ft 0kts
05-Nov-20 19:39 33.896924 -117.602001 181 536ft 0kts
05-Nov-20 19:40 33.896924 -117.602001 181 536ft 0kts
05-Nov-20 19:41 33.896924 -117.602001 181 536ft 0kts
05-Nov-20 19:42 33.896924 -117.602001 181 536ft 0kts
05-Nov-20 19:43 33.896924 -117.602001 181 536ft 0kts
05-Nov-20 19:44 33.896924 -117.602001 181 536ft 0kts
05-Nov-20 19:45 33.896924 -117.602001 181 536ft 0kts
05-Nov-20 19:46 33.896924 -117.602001 181 536ft 0kts
05-Nov-20 19:47 33.896987 -117.601844 29 536ft 2kts
05-Nov-20 19:48 33.897262 -117.602079 266 536ft 12kts
05-Nov-20 19:49 33.897205 -117.607613 13 536ft 0kts
05-Nov-20 19:50 33.897206 -117.607613 13 536ft 0kts
05-Nov-20 19:51 33.897206 -117.607613 13 536ft 0kts
05-Nov-20 19:52 33.897206 -117.607613 13 536ft 0kts
05-Nov-20 19:53 33.897206 -117.607613 13 536ft 0kts
05-Nov-20 19:54 33.897206 -117.607613 13 536ft 0kts
05-Nov-20 19:55 33.897636 -117.606327 87 536ft 44kts
05-Nov-20 19:56 33.903132 -117.574216 60 1669ft 115kts
05-Nov-20 19:57 33.915403 -117.539791 71 3366ft 113kts
05-Nov-20 19:58 33.937065 -117.512101 40 4965ft 116kts
05-Nov-20 19:59 33.963944 -117.503226 299 6106ft 115kts
05-Nov-20 20:00 33.945716 -117.524506 192 7067ft 124kts
05-Nov-20 20:01 33.911301 -117.540624 244 7588ft 145kts
05-Nov-20 20:02 33.937695 -117.556210 40 8129ft 152kts
05-Nov-20 20:03 33.968110 -117.520736 82 8585ft 154kts
05-Nov-20 20:04 33.938553 -117.508339 198 9009ft 148kts
05-Nov-20 20:05 33.913551 -117.548488 282 8998ft 170kts
05-Nov-20 20:06 33.951325 -117.545670 60 9003ft 171kts
05-Nov-20 20:07 33.978286 -117.497539 41 9000ft 176kts
05-Nov-20 20:08 34.021002 -117.468442 26 9007ft 177kts
05-Nov-20 20:09 34.065331 -117.441784 26 9011ft 178kts
05-Nov-20 20:10 34.109812 -117.415034 26 9014ft 178kts
05-Nov-20 20:11 34.154146 -117.388336 26 9016ft 178kts
05-Nov-20 20:12 34.199234 -117.361147 26 8897ft 179kts
05-Nov-20 20:13 34.244760 -117.333658 27 8899ft 185kts
05-Nov-20 20:14 34.291297 -117.305522 27 8716ft 193kts
05-Nov-20 20:15 34.340160 -117.275946 27 8225ft 198kts
05-Nov-20 20:16 34.389084 -117.246303 27 7895ft 191kts
05-Nov-20 20:17 34.435512 -117.218132 26 7906ft 185kts
05-Nov-20 20:18 34.481440 -117.190212 26 7922ft 184kts
05-Nov-20 20:19 34.526978 -117.162528 26 7943ft 182kts
05-Nov-20 20:20 34.574927 -117.144243 7 7792ft 185kts
05-Nov-20 20:21 34.622999 -117.145530 353 7261ft 165kts
05-Nov-20 20:22 34.666685 -117.159222 340 6749ft 161kts
05-Nov-20 20:23 34.705030 -117.182916 328 6561ft 144kts
05-Nov-20 20:24 34.733782 -117.210426 318 6587ft 127kts
05-Nov-20 20:25 34.757026 -117.242209 308 6571ft 124kts
05-Nov-20 20:26 34.775341 -117.278077 298 6572ft 124kts
05-Nov-20 20:27 34.788915 -117.319348 287 6221ft 137kts
05-Nov-20 20:28 34.796220 -117.363470 277 5468ft 127kts
05-Nov-20 20:29 34.771997 -117.377083 172 4762ft 106kts
05-Nov-20 20:30 34.742704 -117.377233 182 4289ft 110kts
05-Nov-20 20:31 34.711349 -117.379748 184 4271ft 113kts
05-Nov-20 20:32 34.679788 -117.382596 185 3972ft 114kts
05-Nov-20 20:33 34.647797 -117.385337 183 3384ft 110kts
05-Nov-20 20:34 34.613022 -117.388079 181 3873ft 128kts
05-Nov-20 20:35 34.605700 -117.415310 309 5812ft 112kts
05-Nov-20 20:36 34.620163 -117.459281 282 6026ft 158kts
05-Nov-20 20:37 34.628280 -117.512933 280 6018ft 162kts
05-Nov-20 20:38 34.636041 -117.566836 280 6018ft 162kts
05-Nov-20 20:39 34.643775 -117.620875 281 6016ft 162kts
05-Nov-20 20:40 34.665217 -117.661935 7 5649ft 172kts
05-Nov-20 20:41 34.687654 -117.614716 71 5514ft 161kts
05-Nov-20 20:42 34.677347 -117.564899 116 5517ft 158kts
05-Nov-20 20:43 34.656481 -117.517194 116 5319ft 166kts
05-Nov-20 20:44 34.635275 -117.468892 116 4702ft 153kts
05-Nov-20 20:45 34.615826 -117.424632 117 4074ft 140kts
05-Nov-20 20:46 34.610070 -117.394444 42 3820ft 70kts
05-Nov-20 20:47 34.624912 -117.374137 68 4007ft 89kts
05-Nov-20 20:48 34.611441 -117.358894 205 3465ft 86kts
05-Nov-20 20:49 34.593520 -117.374939 224 2860ft 59kts
05-Nov-20 20:50 34.589848 -117.377818 131 2867ft 0kts
05-Nov-20 20:51 34.589848 -117.377818 131 2867ft 0kts
05-Nov-20 20:52 34.588311 -117.377741 140 2870ft 14kts
05-Nov-20 20:53 34.587469 -117.376268 314 2871ft 0kts

Navigation Log

Ident Type
Flight plan parsing failed, navigation log unavailable